Check out our new BloomSky Weather System.

Active alerts


No alerts


Thunder radar  blitzortung!


Rain radar more information rain snow radar


Visit our other weather sites:

Template documentation
and downloads

And another site



Weather Underground History page Text

Daily Summary for July 23, 2017 Units:  English    Metric   Both
« Previous Day
Next Day »
Daily Weekly Monthly Yearly Custom
  High: Low: Average:
Temperature: 97.2 °F 77.4 °F 85.2 °F
Dew Point: 81.9 °F 75.4 °F 77.7 °F
Humidity: 98 % 53 % 80 %
Wind Speed: 11.0 mph 0.0 mph 2.8 mph
Wind Gust: 14.0 mph - -
Wind:- - South
Pressure: 29.95 in 29.83 in -
Precipitation: 0.01 in    
Historical Graphs
 
 
Tabular Data for July 23, 2017
Time Temperature Dew Point Pressure Wind Wind Speed Wind Gust Humidity Rainfall Rate (Hourly)
00:04 78.1 °F 76.8 °F 29.94 in Calm   2.0 mph 96 % 0.00 in
00:09 77.7 °F 76.5 °F 29.94 in Calm   1.0 mph 96 % 0.00 in
00:14 77.7 °F 76.5 °F 29.93 in Calm   1.0 mph 96 % 0.00 in
00:19 77.9 °F 77.0 °F 29.93 in Calm     97 % 0.00 in
00:24 78.1 °F 77.2 °F 29.92 in SSW 2.0 mph   97 % 0.00 in
00:29 78.1 °F 77.2 °F 29.93 in Calm   3.0 mph 97 % 0.00 in
00:34 78.1 °F 77.2 °F 29.93 in South 2.0 mph 3.0 mph 97 % 0.00 in
00:39 78.1 °F 77.2 °F 29.92 in South 1.0 mph 3.0 mph 97 % 0.00 in
00:44 78.1 °F 77.2 °F 29.92 in SSE 2.0 mph 2.0 mph 97 % 0.00 in
00:49 78.1 °F 77.2 °F 29.92 in SE 1.0 mph 3.0 mph 97 % 0.00 in
00:54 78.3 °F 77.4 °F 29.92 in SE 1.0 mph 3.0 mph 97 % 0.00 in
00:59 78.3 °F 77.4 °F 29.93 in Calm   3.0 mph 97 % 0.00 in
01:04 78.1 °F 77.2 °F 29.93 in Calm   2.0 mph 97 % 0.00 in
01:09 78.1 °F 77.2 °F 29.93 in Calm   2.0 mph 97 % 0.00 in
01:14 78.1 °F 77.2 °F 29.93 in Calm   2.0 mph 97 % 0.00 in
01:19 78.1 °F 77.2 °F 29.93 in Calm   2.0 mph 97 % 0.00 in
01:24 77.9 °F 77.0 °F 29.93 in Calm   2.0 mph 97 % 0.00 in
01:29 77.9 °F 77.0 °F 29.93 in Calm   1.0 mph 97 % 0.00 in
01:34 77.7 °F 76.8 °F 29.93 in Calm     97 % 0.00 in
01:39 77.7 °F 76.8 °F 29.93 in Calm     97 % 0.00 in
01:44 77.5 °F 76.6 °F 29.93 in Calm     97 % 0.00 in
01:46 77.5 °F 76.6 °F 29.93 in Calm     97 % 0.00 in
01:51 77.5 °F 76.6 °F 29.92 in Calm     97 % 0.00 in
01:56 77.7 °F 76.8 °F 29.92 in SSW 1.0 mph 3.0 mph 97 % 0.00 in
02:01 77.9 °F 77.0 °F 29.92 in South 1.0 mph 3.0 mph 97 % 0.00 in
02:02 77.9 °F 77.0 °F 29.92 in South 2.0 mph 3.0 mph 97 % 0.00 in
02:07 78.1 °F 77.2 °F 29.92 in SSE 1.0 mph 3.0 mph 97 % 0.00 in
02:12 78.1 °F 77.2 °F 29.92 in Calm   3.0 mph 97 % 0.00 in
02:17 78.1 °F 77.2 °F 29.92 in Calm   3.0 mph 97 % 0.00 in
02:22 78.1 °F 77.2 °F 29.92 in Calm   3.0 mph 97 % 0.00 in
02:27 77.9 °F 77.0 °F 29.92 in Calm   3.0 mph 97 % 0.00 in
02:32 77.9 °F 77.0 °F 29.92 in Calm   2.0 mph 97 % 0.00 in
02:37 77.7 °F 76.8 °F 29.92 in Calm   1.0 mph 97 % 0.00 in
02:42 77.7 °F 76.8 °F 29.92 in Calm   1.0 mph 97 % 0.00 in
02:47 77.7 °F 76.8 °F 29.92 in Calm   1.0 mph 97 % 0.00 in
02:52 77.7 °F 76.8 °F 29.91 in Calm   1.0 mph 97 % 0.00 in
02:57 78.1 °F 77.2 °F 29.91 in Calm   2.0 mph 97 % 0.00 in
02:58 78.1 °F 77.2 °F 29.91 in Calm   2.0 mph 97 % 0.00 in
03:03 77.9 °F 77.0 °F 29.91 in Calm   2.0 mph 97 % 0.00 in
03:08 77.9 °F 77.0 °F 29.91 in Calm   2.0 mph 97 % 0.00 in
03:13 77.9 °F 77.0 °F 29.91 in Calm   2.0 mph 97 % 0.00 in
03:18 77.9 °F 77.0 °F 29.91 in Calm   1.0 mph 97 % 0.00 in
03:23 77.9 °F 77.0 °F 29.90 in SSE 1.0 mph 1.0 mph 97 % 0.00 in
03:28 77.9 °F 77.0 °F 29.90 in Calm   2.0 mph 97 % 0.00 in
03:33 77.9 °F 77.0 °F 29.90 in South 1.0 mph 2.0 mph 97 % 0.00 in
03:38 77.9 °F 77.0 °F 29.90 in SE 1.0 mph 2.0 mph 97 % 0.00 in
03:43 77.9 °F 77.0 °F 29.89 in SSW 2.0 mph 2.0 mph 97 % 0.00 in
03:48 77.9 °F 77.0 °F 29.89 in South 2.0 mph 4.0 mph 97 % 0.00 in
03:53 77.9 °F 77.0 °F 29.89 in SSE 1.0 mph 4.0 mph 97 % 0.00 in
03:58 77.9 °F 77.0 °F 29.89 in South 1.0 mph 4.0 mph 97 % 0.00 in
04:03 77.9 °F 77.0 °F 29.89 in SSW 1.0 mph 3.0 mph 97 % 0.00 in
04:08 77.9 °F 77.0 °F 29.89 in South 2.0 mph 3.0 mph 97 % 0.00 in
04:13 77.9 °F 77.0 °F 29.88 in SSE 1.0 mph 3.0 mph 97 % 0.00 in
04:18 77.9 °F 77.0 °F 29.88 in SSE 1.0 mph 3.0 mph 97 % 0.00 in
04:23 77.7 °F 76.8 °F 29.88 in SE 1.0 mph 3.0 mph 97 % 0.00 in
04:28 77.7 °F 76.8 °F 29.88 in South 1.0 mph 2.0 mph 97 % 0.00 in
04:33 77.7 °F 76.8 °F 29.88 in Calm   2.0 mph 97 % 0.00 in
04:38 77.7 °F 76.8 °F 29.89 in Calm   2.0 mph 97 % 0.00 in
04:43 77.7 °F 76.8 °F 29.88 in Calm   2.0 mph 97 % 0.00 in
04:48 77.7 °F 76.8 °F 29.88 in Calm   2.0 mph 97 % 0.00 in
04:53 77.7 °F 76.8 °F 29.88 in Calm   1.0 mph 97 % 0.00 in
04:58 77.7 °F 76.8 °F 29.88 in SSE 1.0 mph 1.0 mph 97 % 0.00 in
05:03 77.7 °F 76.8 °F 29.88 in Calm   1.0 mph 97 % 0.00 in
05:04 77.7 °F 76.8 °F 29.88 in SSE 1.0 mph 1.0 mph 97 % 0.00 in
05:09 77.7 °F 76.8 °F 29.88 in Calm   1.0 mph 97 % 0.00 in
05:14 77.7 °F 76.8 °F 29.88 in SE 1.0 mph 2.0 mph 97 % 0.00 in
05:19 77.7 °F 76.8 °F 29.88 in SE 1.0 mph 2.0 mph 97 % 0.00 in
05:24 77.5 °F 76.6 °F 29.88 in Calm   2.0 mph 97 % 0.00 in
05:29 77.5 °F 76.6 °F 29.88 in Calm   2.0 mph 97 % 0.00 in
05:34 77.5 °F 76.6 °F 29.89 in Calm   2.0 mph 97 % 0.00 in
05:39 77.5 °F 76.6 °F 29.88 in Calm   2.0 mph 97 % 0.00 in
05:44 77.5 °F 76.6 °F 29.89 in Calm   2.0 mph 97 % 0.00 in
05:49 77.5 °F 76.6 °F 29.89 in Calm   1.0 mph 97 % 0.00 in
05:54 77.5 °F 77.0 °F 29.89 in Calm   1.0 mph 98 % 0.00 in
05:59 77.5 °F 76.6 °F 29.90 in Calm   1.0 mph 97 % 0.00 in
06:00 77.5 °F 76.6 °F 29.90 in Calm   1.0 mph 97 % 0.00 in
06:05 77.5 °F 76.6 °F 29.90 in SSE 1.0 mph 1.0 mph 97 % 0.00 in
06:10 77.5 °F 77.0 °F 29.90 in Calm   1.0 mph 98 % 0.00 in
06:15 77.5 °F 77.0 °F 29.90 in Calm   2.0 mph 98 % 0.00 in
06:20 77.5 °F 77.0 °F 29.90 in Calm   2.0 mph 98 % 0.00 in
06:25 77.5 °F 77.0 °F 29.91 in Calm   2.0 mph 98 % 0.00 in
06:30 77.5 °F 77.0 °F 29.91 in Calm   1.0 mph 98 % 0.00 in
06:35 77.4 °F 76.5 °F 29.91 in Calm     97 % 0.00 in
06:40 77.4 °F 76.8 °F 29.91 in Calm   1.0 mph 98 % 0.00 in
06:45 77.5 °F 77.0 °F 29.91 in Calm   1.0 mph 98 % 0.00 in
06:50 77.5 °F 77.0 °F 29.91 in Calm   1.0 mph 98 % 0.00 in
06:55 77.5 °F 77.0 °F 29.91 in Calm     98 % 0.00 in
07:00 77.4 °F 76.8 °F 29.91 in Calm     98 % 0.00 in
07:05 77.5 °F 77.0 °F 29.91 in Calm     98 % 0.00 in
07:10 77.7 °F 77.2 °F 29.91 in Calm   2.0 mph 98 % 0.00 in
07:15 77.9 °F 77.4 °F 29.91 in Calm   2.0 mph 98 % 0.00 in
07:20 78.3 °F 77.7 °F 29.91 in Calm   2.0 mph 98 % 0.00 in
07:25 78.6 °F 78.1 °F 29.91 in Calm   2.0 mph 98 % 0.00 in
07:30 79.2 °F 78.6 °F 29.91 in South 2.0 mph 2.0 mph 98 % 0.00 in
07:35 79.3 °F 78.4 °F 29.92 in SSW 1.0 mph 2.0 mph 97 % 0.00 in
07:41 79.3 °F 78.4 °F 29.92 in SSE 1.0 mph 2.0 mph 97 % 0.00 in
07:46 79.5 °F 78.6 °F 29.92 in Calm   3.0 mph 97 % 0.00 in
07:51 80.1 °F 79.2 °F 29.92 in SSW 1.0 mph 3.0 mph 97 % 0.00 in
07:56 80.4 °F 79.5 °F 29.92 in SSE 3.0 mph 3.0 mph 97 % 0.00 in
08:01 80.8 °F 79.5 °F 29.92 in SSW 1.0 mph 4.0 mph 96 % 0.00 in
08:06 81.1 °F 79.9 °F 29.92 in Calm   4.0 mph 96 % 0.00 in
08:11 81.7 °F 80.1 °F 29.92 in SSW 1.0 mph 4.0 mph 95 % 0.00 in
08:16 81.9 °F 79.9 °F 29.92 in South 2.0 mph 6.0 mph 94 % 0.00 in
08:18 82.0 °F 80.1 °F 29.92 in SSW 4.0 mph 6.0 mph 94 % 0.00 in
08:23 82.2 °F 80.1 °F 29.92 in SSE 3.0 mph 6.0 mph 93 % 0.00 in
08:28 82.6 °F 80.1 °F 29.92 in SSE 2.0 mph 6.0 mph 92 % 0.00 in
08:33 82.9 °F 80.4 °F 29.93 in SSE 1.0 mph 6.0 mph 92 % 0.00 in
08:38 83.3 °F 80.1 °F 29.93 in SSW 3.0 mph 6.0 mph 90 % 0.00 in
08:43 83.7 °F 80.8 °F 29.93 in SSW 1.0 mph 7.0 mph 91 % 0.01 in
08:48 84.4 °F 80.8 °F 29.93 in SSW 2.0 mph 7.0 mph 89 % 0.01 in
08:53 84.7 °F 80.8 °F 29.93 in South 6.0 mph 7.0 mph 88 % 0.01 in
08:58 84.9 °F 80.6 °F 29.93 in SSW 5.0 mph 8.0 mph 87 % 0.01 in
09:03 85.3 °F 81.3 °F 29.93 in Calm   8.0 mph 88 % 0.01 in
09:08 85.6 °F 81.0 °F 29.93 in SSW 1.0 mph 8.0 mph 86 % 0.01 in
09:14 86.2 °F 81.5 °F 29.93 in South 2.0 mph 6.0 mph 86 % 0.01 in
09:19 86.4 °F 81.3 °F 29.93 in South 2.0 mph 6.0 mph 85 % 0.01 in
09:24 86.9 °F 81.9 °F 29.93 in SSE 7.0 mph 7.0 mph 85 % 0.01 in
09:29 86.7 °F 81.0 °F 29.93 in SW 3.0 mph 8.0 mph 83 % 0.01 in
09:31 86.7 °F 80.6 °F 29.93 in SSW 7.0 mph 9.0 mph 82 % 0.01 in
09:36 86.7 °F 81.3 °F 29.93 in SSW 3.0 mph 10.0 mph 84 % 0.01 in
09:42 86.7 °F 81.0 °F 29.93 in SSE 9.0 mph 10.0 mph 83 % 0.00 in
09:47 86.7 °F 80.6 °F 29.93 in SSW 5.0 mph 12.0 mph 82 % 0.00 in
09:52 86.7 °F 80.6 °F 29.93 in SSW 5.0 mph 12.0 mph 82 % 0.00 in
09:57 86.7 °F 80.6 °F 29.94 in SSW 3.0 mph 12.0 mph 82 % 0.00 in
10:02 86.4 °F 80.2 °F 29.94 in SSW 2.0 mph 9.0 mph 82 % 0.00 in
10:07 86.0 °F 79.9 °F 29.94 in SSE 5.0 mph 9.0 mph 82 % 0.00 in
10:12 86.0 °F 80.2 °F 29.94 in South 2.0 mph 9.0 mph 83 % 0.00 in
10:13 85.8 °F 79.7 °F 29.94 in SSE 7.0 mph 9.0 mph 82 % 0.00 in
10:18 86.2 °F 80.8 °F 29.94 in SSW 8.0 mph 8.0 mph 84 % 0.00 in
10:23 86.9 °F 80.8 °F 29.94 in SSE 5.0 mph 8.0 mph 82 % 0.00 in
10:28 87.6 °F 80.2 °F 29.94 in South 6.0 mph 8.0 mph 79 % 0.00 in
10:33 87.4 °F 80.1 °F 29.94 in South 3.0 mph 9.0 mph 79 % 0.00 in
10:38 87.4 °F 80.4 °F 29.94 in SSW 3.0 mph 9.0 mph 80 % 0.00 in
10:43 88.0 °F 80.2 °F 29.94 in SE 9.0 mph 9.0 mph 78 % 0.00 in
10:48 88.2 °F 79.7 °F 29.94 in WNW 3.0 mph 11.0 mph 76 % 0.00 in
10:53 88.3 °F 79.9 °F 29.94 in SSE 7.0 mph 11.0 mph 76 % 0.00 in
10:58 88.9 °F 80.8 °F 29.94 in ESE 4.0 mph 12.0 mph 77 % 0.00 in
11:03 89.2 °F 79.9 °F 29.94 in West 1.0 mph 12.0 mph 74 % 0.00 in
11:08 89.2 °F 79.5 °F 29.94 in SSW 2.0 mph 12.0 mph 73 % 0.00 in
11:13 89.8 °F 79.5 °F 29.95 in South 6.0 mph 10.0 mph 72 % 0.00 in
11:18 89.4 °F 79.7 °F 29.94 in WSW 2.0 mph 9.0 mph 73 % 0.00 in
11:23 89.4 °F 79.2 °F 29.94 in SSW 4.0 mph 9.0 mph 72 % 0.00 in
11:28 89.6 °F 79.0 °F 29.94 in SSW 6.0 mph 9.0 mph 71 % 0.00 in
11:33 89.8 °F 79.9 °F 29.94 in SSW 1.0 mph 12.0 mph 73 % 0.00 in
11:38 90.9 °F 80.6 °F 29.94 in SSE 11.0 mph 12.0 mph 72 % 0.00 in
11:43 90.7 °F 79.2 °F 29.94 in South 5.0 mph 12.0 mph 69 % 0.00 in
11:48 90.7 °F 78.6 °F 29.94 in SSW 2.0 mph 11.0 mph 68 % 0.00 in
11:53 90.9 °F 79.7 °F 29.94 in SSW 3.0 mph 11.0 mph 70 % 0.00 in
11:58 91.4 °F 79.7 °F 29.94 in SSW 1.0 mph 11.0 mph 69 % 0.00 in
12:03 91.8 °F 80.1 °F 29.94 in North 1.0 mph 9.0 mph 69 % 0.00 in
12:08 92.1 °F 79.2 °F 29.94 in South 7.0 mph 8.0 mph 66 % 0.00 in
12:13 91.9 °F 79.3 °F 29.94 in SSW 1.0 mph 9.0 mph 67 % 0.00 in
12:18 92.3 °F 79.7 °F 29.94 in SW 2.0 mph 9.0 mph 67 % 0.00 in
12:23 92.5 °F 79.5 °F 29.94 in SSW 3.0 mph 9.0 mph 66 % 0.00 in
12:28 92.1 °F 78.6 °F 29.94 in SSW 5.0 mph 9.0 mph 65 % 0.00 in
12:33 92.5 °F 78.1 °F 29.93 in SSW 3.0 mph 9.0 mph 63 % 0.00 in
12:38 92.7 °F 79.2 °F 29.93 in WSW 1.0 mph 10.0 mph 65 % 0.00 in
12:43 92.7 °F 79.2 °F 29.93 in SW 2.0 mph 10.0 mph 65 % 0.00 in
12:48 93.0 °F 77.5 °F 29.93 in SE 3.0 mph 10.0 mph 61 % 0.00 in
12:53 93.6 °F 79.0 °F 29.93 in South 3.0 mph 10.0 mph 63 % 0.00 in
12:58 93.6 °F 78.6 °F 29.93 in SSW 4.0 mph 10.0 mph 62 % 0.00 in
13:03 93.4 °F 77.9 °F 29.92 in SSW 5.0 mph 14.0 mph 61 % 0.00 in
13:08 93.6 °F 79.0 °F 29.92 in WSW 1.0 mph 14.0 mph 63 % 0.00 in
13:13 93.9 °F 79.9 °F 29.92 in South 2.0 mph 14.0 mph 64 % 0.00 in
13:18 94.5 °F 78.4 °F 29.92 in WSW 1.0 mph 13.0 mph 60 % 0.00 in
13:23 94.8 °F 77.7 °F 29.91 in WNW 3.0 mph 13.0 mph 58 % 0.00 in
13:28 94.5 °F 77.9 °F 29.91 in South 2.0 mph 9.0 mph 59 % 0.00 in
13:33 94.3 °F 77.7 °F 29.91 in SSW 2.0 mph 9.0 mph 59 % 0.00 in
13:38 94.6 °F 77.5 °F 29.91 in South 7.0 mph 9.0 mph 58 % 0.00 in
13:42 94.6 °F 78.1 °F 29.91 in SE 5.0 mph 10.0 mph 59 % 0.00 in
13:47 94.6 °F 77.5 °F 29.91 in South 2.0 mph 11.0 mph 58 % 0.00 in
13:52 94.6 °F 77.5 °F 29.91 in South 2.0 mph 13.0 mph 58 % 0.00 in
13:57 95.4 °F 78.3 °F 29.91 in SW 5.0 mph 13.0 mph 58 % 0.00 in
14:02 95.7 °F 78.6 °F 29.91 in SSW 4.0 mph 13.0 mph 58 % 0.00 in
14:07 96.1 °F 78.4 °F 29.90 in NW 3.0 mph 9.0 mph 57 % 0.00 in
14:12 96.6 °F 77.2 °F 29.90 in SSE 2.0 mph 6.0 mph 54 % 0.00 in
14:17 97.2 °F 77.2 °F 29.90 in WNW 2.0 mph 7.0 mph 53 % 0.00 in
14:22 96.6 °F 77.2 °F 29.90 in Calm   7.0 mph 54 % 0.00 in
14:27 96.1 °F 77.4 °F 29.90 in West 1.0 mph 7.0 mph 55 % 0.00 in
14:32 95.7 °F 77.0 °F 29.89 in SSW 1.0 mph 8.0 mph 55 % 0.00 in
14:37 95.5 °F 77.9 °F 29.89 in SW 4.0 mph 8.0 mph 57 % 0.00 in
14:42 95.7 °F 76.5 °F 29.89 in South 2.0 mph 8.0 mph 54 % 0.00 in
14:47 95.0 °F 77.9 °F 29.88 in SE 4.0 mph 8.0 mph 58 % 0.00 in
14:52 93.4 °F 77.9 °F 29.88 in SSW 3.0 mph 11.0 mph 61 % 0.00 in
14:57 92.5 °F 78.1 °F 29.88 in SSW 4.0 mph 11.0 mph 63 % 0.00 in
15:02 92.3 °F 78.3 °F 29.88 in SE 6.0 mph 11.0 mph 64 % 0.00 in
15:07 92.1 °F 75.7 °F 29.88 in SE 7.0 mph 11.0 mph 59 % 0.00 in
15:12 92.1 °F 76.6 °F 29.87 in SSE 6.0 mph 11.0 mph 61 % 0.00 in
15:17 91.8 °F 76.8 °F 29.87 in SE 6.0 mph 11.0 mph 62 % 0.00 in
15:22 91.2 °F 76.8 °F 29.87 in SSE 7.0 mph 11.0 mph 63 % 0.00 in
15:27 90.9 °F 77.0 °F 29.87 in SE 4.0 mph 11.0 mph 64 % 0.00 in
15:32 90.9 °F 77.5 °F 29.87 in SW 6.0 mph 11.0 mph 65 % 0.00 in
15:37 90.1 °F 77.7 °F 29.87 in SW 7.0 mph 11.0 mph 67 % 0.00 in
15:42 89.1 °F 77.2 °F 29.87 in WSW 4.0 mph 13.0 mph 68 % 0.00 in
15:47 87.8 °F 75.9 °F 29.87 in South 4.0 mph 13.0 mph 68 % 0.00 in
15:52 87.4 °F 75.6 °F 29.87 in SE 7.0 mph 13.0 mph 68 % 0.00 in
15:57 87.4 °F 75.6 °F 29.86 in SSW 7.0 mph 11.0 mph 68 % 0.00 in
16:02 88.0 °F 76.1 °F 29.86 in West 3.0 mph 11.0 mph 68 % 0.00 in
16:07 87.6 °F 75.7 °F 29.86 in South 4.0 mph 10.0 mph 68 % 0.00 in
16:12 87.1 °F 76.5 °F 29.86 in South 5.0 mph 13.0 mph 71 % 0.00 in
16:17 86.4 °F 75.4 °F 29.86 in South 5.0 mph 13.0 mph 70 % 0.00 in
16:22 86.5 °F 76.5 °F 29.86 in SW 5.0 mph 13.0 mph 72 % 0.00 in
16:27 87.1 °F 77.4 °F 29.86 in SSE 5.0 mph 12.0 mph 73 % 0.00 in
16:32 88.0 °F 77.4 °F 29.86 in SSE 5.0 mph 10.0 mph 71 % 0.00 in
16:37 88.9 °F 77.9 °F 29.86 in SE 5.0 mph 9.0 mph 70 % 0.00 in
16:42 89.8 °F 78.6 °F 29.85 in SW 4.0 mph 9.0 mph 70 % 0.00 in
16:48 90.7 °F 78.6 °F 29.85 in ESE 5.0 mph 9.0 mph 68 % 0.00 in
16:53 91.8 °F 78.8 °F 29.84 in South 5.0 mph 9.0 mph 66 % 0.00 in
16:58 92.7 °F 79.2 °F 29.84 in SSW 5.0 mph 8.0 mph 65 % 0.00 in
17:03 93.0 °F 78.6 °F 29.85 in SE 6.0 mph 8.0 mph 63 % 0.00 in
17:08 92.8 °F 78.8 °F 29.84 in SW 5.0 mph 10.0 mph 64 % 0.00 in
17:13 92.7 °F 79.2 °F 29.83 in South 6.0 mph 11.0 mph 65 % 0.00 in
17:18 92.7 °F 79.2 °F 29.84 in South 7.0 mph 12.0 mph 65 % 0.00 in
17:23 92.7 °F 78.6 °F 29.84 in South 6.0 mph 12.0 mph 64 % 0.00 in
17:28 92.1 °F 78.3 °F 29.84 in SSE 7.0 mph 12.0 mph 64 % 0.00 in
17:33 92.1 °F 78.3 °F 29.84 in SSE 7.0 mph 11.0 mph 64 % 0.00 in
17:38 92.3 °F 78.8 °F 29.84 in South 3.0 mph 11.0 mph 65 % 0.00 in
17:43 92.5 °F 78.4 °F 29.84 in South 8.0 mph 11.0 mph 64 % 0.00 in
17:48 92.7 °F 79.2 °F 29.84 in South 4.0 mph 11.0 mph 65 % 0.00 in
17:53 92.7 °F 78.3 °F 29.84 in SSW 4.0 mph 11.0 mph 63 % 0.00 in
17:58 92.8 °F 78.8 °F 29.84 in SE 7.0 mph 11.0 mph 64 % 0.00 in
18:03 92.8 °F 77.9 °F 29.84 in SSW 9.0 mph 10.0 mph 62 % 0.00 in
18:08 92.7 °F 77.2 °F 29.84 in SSW 8.0 mph 11.0 mph 61 % 0.00 in
18:13 92.8 °F 76.8 °F 29.84 in SSW 4.0 mph 13.0 mph 60 % 0.00 in
18:18 92.8 °F 77.4 °F 29.83 in South 6.0 mph 13.0 mph 61 % 0.00 in
18:23 92.8 °F 76.8 °F 29.83 in SSW 4.0 mph 13.0 mph 60 % 0.00 in
18:28 92.7 °F 77.7 °F 29.83 in South 4.0 mph 11.0 mph 62 % 0.00 in
18:33 92.7 °F 77.2 °F 29.83 in SSE 4.0 mph 11.0 mph 61 % 0.00 in
18:38 92.7 °F 77.2 °F 29.83 in South 3.0 mph 11.0 mph 61 % 0.00 in
18:43 92.5 °F 77.0 °F 29.84 in South 9.0 mph 10.0 mph 61 % 0.00 in
18:48 92.3 °F 76.8 °F 29.83 in SE 4.0 mph 12.0 mph 61 % 0.00 in
18:49 92.3 °F 77.4 °F 29.83 in SW 4.0 mph 12.0 mph 62 % 0.00 in
18:54 92.3 °F 76.8 °F 29.84 in SSE 4.0 mph 12.0 mph 61 % 0.00 in
18:59 92.1 °F 77.2 °F 29.84 in South 8.0 mph 12.0 mph 62 % 0.00 in
19:04 91.9 °F 77.0 °F 29.84 in SSE 3.0 mph 10.0 mph 62 % 0.00 in
19:09 91.9 °F 77.0 °F 29.84 in SSE 9.0 mph 10.0 mph 62 % 0.00 in
19:14 91.6 °F 77.7 °F 29.84 in SSE 4.0 mph 13.0 mph 64 % 0.00 in
19:19 91.0 °F 77.2 °F 29.85 in South 6.0 mph 13.0 mph 64 % 0.00 in
19:24 90.7 °F 77.4 °F 29.85 in SSE 5.0 mph 13.0 mph 65 % 0.00 in
19:29 90.3 °F 77.4 °F 29.85 in SE 2.0 mph 11.0 mph 66 % 0.00 in
19:34 90.0 °F 77.0 °F 29.85 in SSE 6.0 mph 11.0 mph 66 % 0.00 in
19:39 89.8 °F 76.5 °F 29.86 in SE 7.0 mph 11.0 mph 65 % 0.00 in
19:44 89.2 °F 75.9 °F 29.86 in SSW 3.0 mph 12.0 mph 65 % 0.00 in
19:49 89.1 °F 76.3 °F 29.86 in SSW 3.0 mph 12.0 mph 66 % 0.00 in
19:54 88.9 °F 76.5 °F 29.87 in SE 7.0 mph 12.0 mph 67 % 0.00 in
19:59 88.7 °F 76.3 °F 29.87 in South 5.0 mph 11.0 mph 67 % 0.00 in
20:04 88.5 °F 76.6 °F 29.87 in SSE 4.0 mph 10.0 mph 68 % 0.00 in
20:09 88.3 °F 76.5 °F 29.87 in South 3.0 mph 10.0 mph 68 % 0.00 in
20:14 88.2 °F 76.6 °F 29.87 in South 5.0 mph 10.0 mph 69 % 0.00 in
20:15 88.2 °F 76.6 °F 29.87 in SSW 3.0 mph 10.0 mph 69 % 0.00 in
20:20 88.0 °F 76.5 °F 29.87 in SE 6.0 mph 9.0 mph 69 % 0.00 in
20:25 88.0 °F 77.0 °F 29.88 in South 5.0 mph 9.0 mph 70 % 0.00 in
20:30 87.6 °F 76.6 °F 29.88 in SE 5.0 mph 9.0 mph 70 % 0.00 in
20:35 87.6 °F 76.6 °F 29.88 in SE 3.0 mph 8.0 mph 70 % 0.00 in
20:40 87.4 °F 76.5 °F 29.88 in South 4.0 mph 9.0 mph 70 % 0.00 in
20:45 87.3 °F 76.6 °F 29.88 in South 2.0 mph 9.0 mph 71 % 0.00 in
20:50 87.1 °F 76.5 °F 29.88 in SSW 3.0 mph 9.0 mph 71 % 0.00 in
20:55 87.1 °F 76.5 °F 29.88 in SSE 3.0 mph 8.0 mph 71 % 0.00 in
21:00 86.7 °F 76.6 °F 29.88 in SSE 2.0 mph 8.0 mph 72 % 0.00 in
21:05 86.5 °F 76.5 °F 29.88 in SSE 4.0 mph 10.0 mph 72 % 0.00 in
21:11 86.5 °F 76.5 °F 29.87 in SE 9.0 mph 10.0 mph 72 % 0.00 in
21:16 86.4 °F 76.6 °F 29.88 in SE 4.0 mph 10.0 mph 73 % 0.00 in
21:21 86.2 °F 76.5 °F 29.88 in SSE 6.0 mph 10.0 mph 73 % 0.00 in
21:26 86.0 °F 76.3 °F 29.88 in SSE 8.0 mph 11.0 mph 73 % 0.00 in
21:31 85.8 °F 76.1 °F 29.88 in South 4.0 mph 11.0 mph 73 % 0.00 in
21:36 85.6 °F 75.9 °F 29.88 in SSE 5.0 mph 11.0 mph 73 % 0.00 in
21:41 85.5 °F 76.3 °F 29.88 in SE 3.0 mph 10.0 mph 74 % 0.00 in
21:46 85.3 °F 76.1 °F 29.88 in SSE 4.0 mph 10.0 mph 74 % 0.00 in
21:51 85.3 °F 76.1 °F 29.88 in South 4.0 mph 10.0 mph 74 % 0.00 in
21:56 84.9 °F 75.7 °F 29.88 in SSW 6.0 mph 10.0 mph 74 % 0.00 in
22:01 84.9 °F 76.1 °F 29.88 in SSW 4.0 mph 10.0 mph 75 % 0.00 in
22:06 84.7 °F 75.9 °F 29.88 in South 4.0 mph 10.0 mph 75 % 0.00 in
22:11 84.6 °F 75.7 °F 29.88 in SE 6.0 mph 10.0 mph 75 % 0.00 in
22:16 84.4 °F 75.9 °F 29.88 in SE 4.0 mph 8.0 mph 76 % 0.00 in
22:21 84.2 °F 76.3 °F 29.88 in SE 4.0 mph 8.0 mph 77 % 0.00 in
22:26 84.0 °F 76.1 °F 29.88 in SE 5.0 mph 8.0 mph 77 % 0.00 in
22:31 83.8 °F 76.3 °F 29.89 in SSW 3.0 mph 8.0 mph 78 % 0.00 in
22:36 83.7 °F 76.1 °F 29.89 in SSW 3.0 mph 8.0 mph 78 % 0.00 in
22:41 83.5 °F 75.9 °F 29.89 in SSE 2.0 mph 8.0 mph 78 % 0.00 in
22:46 83.5 °F 76.3 °F 29.89 in South 3.0 mph 7.0 mph 79 % 0.00 in
22:51 83.3 °F 76.1 °F 29.90 in South 4.0 mph 7.0 mph 79 % 0.00 in
22:56 83.1 °F 75.9 °F 29.90 in SSE 3.0 mph 7.0 mph 79 % 0.00 in
23:01 82.9 °F 76.1 °F 29.90 in SSE 2.0 mph 7.0 mph 80 % 0.00 in
23:06 82.9 °F 76.1 °F 29.90 in SSE 1.0 mph 5.0 mph 80 % 0.00 in
23:11 82.9 °F 76.1 °F 29.90 in Calm   4.0 mph 80 % 0.00 in
23:16 82.8 °F 76.3 °F 29.91 in ESE 1.0 mph 4.0 mph 81 % 0.00 in
23:21 82.6 °F 76.1 °F 29.91 in South 1.0 mph 4.0 mph 81 % 0.00 in
23:26 82.6 °F 76.1 °F 29.91 in SSE 2.0 mph 5.0 mph 81 % 0.00 in
23:31 82.6 °F 76.5 °F 29.90 in South 3.0 mph 5.0 mph 82 % 0.00 in
23:36 82.4 °F 76.3 °F 29.90 in SSE 4.0 mph 5.0 mph 82 % 0.00 in
23:41 82.6 °F 76.8 °F 29.90 in SSE 4.0 mph 8.0 mph 83 % 0.00 in
23:46 82.4 °F 76.6 °F 29.89 in South 3.0 mph 8.0 mph 83 % 0.00 in
23:51 82.2 °F 76.5 °F 29.90 in SSE 3.0 mph 9.0 mph 83 % 0.00 in
23:56 82.2 °F 76.8 °F 29.90 in South 4.0 mph 9.0 mph 84 % 0.00 in
Spring, Texas: Villages of Bridgestone
Compliments of Weather Underground - 2.75 mb

Script developed by  Jim McMurry - jmcmurry@mwt.net Adapted for the template by  Wim van der Kuil - Leuven-Template.eu

You find our weather info also at:

UK Metoffice

WeatherCloud

Weather Underground

Mid-South Weather Network

AWEKAS

Citizen Weather Observer Program (CWOP)

HAMweather, WeatherForYou, PWS Weather

Equipment we use:

Weather-station
Davis Vantage Vue

Weather-program
Meteohub

Weather-server
Debian 7.9 x86 (Guest)

Provider
DreamHost

Davis Vantage Vue

Meteohub

Debian 7.9 x86 (Guest)

DreamHost